Time;durP1;ratioP1;P1;durP2;ratioP2;P2;SDS_P1;SDS_P2;PMS_P1;PMS_P2;Temp;Humidity;BMP_temperature;BMP_pressure;BME280_temperature;BME280_humidity;BME280_pressure;Samples;Min_cycle;Max_cycle;Signal;HPM_P1;HPM_P2
2021/10/09 00:03:04;;;;;;;7.00;3.45;;;256.10;2252.80;;;;;;4923137;28;20045;-89
2021/10/09 00:06:14;;;;;;;4.07;2.50;;;256.10;2252.80;;;;;;4994852;28;20468;-87
2021/10/09 00:09:28;;;;;;;4.45;2.70;;;256.10;2252.80;;;;;;4993811;28;20121;-88
2021/10/09 00:12:24;;;;;;;6.72;3.95;;;256.10;2252.80;;;;;;4957005;28;20448;-87
2021/10/09 00:19:33;;;;;;;6.93;2.83;;;256.00;2252.80;;;;;;4938534;29;20115;-88
2021/10/09 00:22:42;;;;;;;6.90;3.47;;;256.00;2252.80;;;;;;4921466;29;20032;-88
2021/10/09 00:25:45;;;;;;;5.25;2.92;;;256.00;2252.80;;;;;;4899030;29;20056;-87
2021/10/09 00:29:20;;;;;;;6.45;3.00;;;256.00;2252.80;;;;;;4917154;29;20036;-88
2021/10/09 00:33:04;;;;;;;4.65;2.80;;;231.30;2252.80;;;;;;4879356;29;20029;-88
2021/10/09 00:36:26;;;;;;;6.78;2.80;;;231.30;2252.80;;;;;;4860578;29;20040;-88
2021/10/09 00:39:55;;;;;;;6.80;3.20;;;231.30;2252.80;;;;;;4841882;29;20036;-88
2021/10/09 00:43:04;;;;;;;5.75;2.67;;;231.30;2252.80;;;;;;4841850;29;20395;-88
2021/10/09 00:49:40;;;;;;;6.45;3.53;;;256.00;2252.80;;;;;;4860759;29;20046;-88
2021/10/09 01:28:06;;;;;;;5.78;2.60;;;256.00;2252.80;;;;;;4838069;29;20045;-88
2021/10/09 01:31:25;;;;;;;4.85;2.85;;;256.00;2252.80;;;;;;4856669;29;20100;-87
2021/10/09 01:49:28;;;;;;;5.22;3.15;;;231.30;2252.80;;;;;;4913695;29;20424;-87
2021/10/09 01:52:36;;;;;;;6.28;3.40;;;231.30;2252.80;;;;;;4914924;29;20397;-87
2021/10/09 01:55:32;;;;;;;6.45;2.92;;;231.30;2252.80;;;;;;4855997;29;20053;-87
2021/10/09 01:59:10;;;;;;;4.63;2.63;;;231.20;2252.80;;;;;;4843477;29;20068;-89
2021/10/09 02:02:06;;;;;;;10.43;3.15;;;231.20;2252.80;;;;;;4878438;29;20093;-87
2021/10/09 02:04:56;;;;;;;9.23;4.15;;;231.20;2252.80;;;;;;4883625;29;20120;-87
2021/10/09 02:08:15;;;;;;;5.65;2.95;;;231.20;2252.80;;;;;;4870990;29;20567;-86
2021/10/09 02:11:39;;;;;;;6.53;2.60;;;231.20;2252.80;;;;;;4887519;29;20036;-87
2021/10/09 02:14:52;;;;;;;5.45;2.58;;;231.10;2252.80;;;;;;4909181;29;20071;-87
2021/10/09 02:17:56;;;;;;;5.63;2.90;;;231.10;2252.80;;;;;;4925445;29;20055;-87
2021/10/09 02:27:47;;;;;;;4.68;3.22;;;231.10;2252.80;;;;;;4845794;29;20068;-88
2021/10/09 02:30:40;;;;;;;7.15;3.65;;;231.10;2252.80;;;;;;4899225;29;20032;-88
2021/10/09 02:33:58;;;;;;;5.05;3.13;;;231.20;2252.80;;;;;;4937369;29;20110;-87
2021/10/09 02:36:58;;;;;;;5.65;2.92;;;231.20;2252.80;;;;;;4909389;29;20040;-87
2021/10/09 02:39:38;;;;;;;5.32;2.92;;;231.10;2252.80;;;;;;4937733;29;20042;-87
2021/10/09 02:42:30;;;;;;;8.10;3.35;;;231.10;2252.80;;;;;;4917687;28;20089;-87
2021/10/09 02:45:16;;;;;;;7.70;3.17;;;231.20;2252.80;;;;;;4949257;28;20061;-88
2021/10/09 02:47:52;;;;;;;5.65;2.83;;;231.20;2252.80;;;;;;4952778;28;20035;-88
2021/10/09 02:50:34;;;;;;;7.75;4.22;;;231.10;2252.80;;;;;;4975924;28;20160;-87
2021/10/09 02:53:27;;;;;;;5.65;3.17;;;231.10;2252.80;;;;;;4977732;28;20038;-88
2021/10/09 02:56:23;;;;;;;6.80;3.28;;;231.20;2252.80;;;;;;4975515;28;20046;-88
2021/10/09 02:59:00;;;;;;;6.40;2.70;;;231.20;2252.80;;;;;;4974374;28;20119;-88
2021/10/09 03:02:00;;;;;;;7.93;3.10;;;231.20;2252.80;;;;;;4979717;28;20057;-88
2021/10/09 03:05:12;;;;;;;4.80;2.70;;;231.20;2252.80;;;;;;4973383;28;20034;-86
2021/10/09 03:08:05;;;;;;;9.05;3.88;;;231.20;2252.80;;;;;;4960374;28;20530;-88
2021/10/09 03:11:15;;;;;;;5.00;3.17;;;231.20;2252.80;;;;;;4956752;28;20039;-87
2021/10/09 03:14:02;;;;;;;6.68;3.38;;;231.10;2252.80;;;;;;4959116;28;20043;-87
2021/10/09 03:17:23;;;;;;;4.97;3.17;;;231.10;2252.80;;;;;;4958068;29;20090;-87
2021/10/09 03:20:19;;;;;;;;;;;231.10;2252.80;;;;;;4958397;29;20031;-88
2021/10/09 03:23:24;;;;;;;6.20;3.90;;;231.10;2252.80;;;;;;4937098;29;19913;-88
2021/10/09 03:26:55;;;;;;;9.57;4.93;;;231.00;2252.80;;;;;;4951706;28;20051;-88
2021/10/09 03:30:18;;;;;;;8.25;4.63;;;231.00;2252.80;;;;;;4862563;29;20040;-88
2021/10/09 03:32:54;;;;;;;6.72;4.10;;;231.10;2252.80;;;;;;4861627;29;20108;-88
2021/10/09 03:36:10;;;;;;;6.15;3.63;;;231.10;2252.80;;;;;;4857535;29;20072;-87
2021/10/09 03:39:44;;;;;;;6.32;3.65;;;231.10;2252.80;;;;;;4884127;29;20057;-87
2021/10/09 03:42:38;;;;;;;6.20;3.73;;;231.00;2252.80;;;;;;4882203;29;20156;-87
2021/10/09 03:45:55;;;;;;;5.97;3.40;;;231.00;2252.80;;;;;;4866214;29;20100;-87
2021/10/09 03:49:26;;;;;;;7.20;3.92;;;231.10;2252.80;;;;;;4881230;29;20040;-87
2021/10/09 03:52:35;;;;;;;5.57;3.30;;;231.00;2252.80;;;;;;4862378;29;20052;-88
2021/10/09 03:55:22;;;;;;;5.75;3.53;;;231.10;2252.80;;;;;;4877792;29;20037;-88
2021/10/09 03:58:14;;;;;;;7.82;3.75;;;231.00;2252.80;;;;;;4865681;29;20085;-87
2021/10/09 04:01:27;;;;;;;5.63;3.38;;;231.00;2252.80;;;;;;4923119;29;20028;-87
2021/10/09 04:04:28;;;;;;;5.53;3.10;;;231.00;2252.80;;;;;;4863429;29;20491;-88
2021/10/09 04:07:16;;;;;;;5.63;2.92;;;231.00;2252.80;;;;;;4931536;29;20086;-87
2021/10/09 04:13:53;;;;;;;5.82;3.30;;;231.00;2252.80;;;;;;4936454;29;20038;-88
2021/10/09 04:17:12;;;;;;;7.40;2.80;;;231.10;2252.80;;;;;;4917333;29;20032;-88
2021/10/09 04:20:02;;;;;;;6.38;3.58;;;231.10;2252.80;;;;;;4916918;29;20059;-88
2021/10/09 04:23:02;;;;;;;5.85;3.78;;;231.10;2252.80;;;;;;4870929;29;20041;-87
2021/10/09 04:26:20;;;;;;;7.07;4.60;;;231.00;2252.80;;;;;;4871893;29;20048;-86
2021/10/09 04:30:05;;;;;;;8.55;4.93;;;231.10;2252.80;;;;;;4860083;29;20124;-87
2021/10/09 04:33:53;;;;;;;9.57;5.60;;;231.00;2252.80;;;;;;4823458;29;20121;-87
2021/10/09 04:52:09;;;;;;;7.45;4.95;;;231.10;2252.80;;;;;;4832054;29;20065;-87
2021/10/09 04:54:50;;;;;;;;;;;231.10;2252.80;;;;;;4843725;29;20085;-88
2021/10/09 04:58:51;;;;;;;10.20;6.13;;;231.00;2252.80;;;;;;4821209;29;19913;-88
2021/10/09 05:01:52;;;;;;;9.60;5.45;;;231.00;2252.80;;;;;;4889834;29;20043;-88
2021/10/09 05:04:43;;;;;;;10.32;6.60;;;231.00;2252.80;;;;;;4955574;29;20150;-87
2021/10/09 05:07:52;;;;;;;9.48;5.43;;;231.00;2252.80;;;;;;4956600;28;20097;-87
2021/10/09 05:14:17;;;;;;;10.90;4.90;;;231.00;2252.80;;;;;;5012973;28;20103;-88
2021/10/09 05:17:29;;;;;;;8.55;4.95;;;231.00;2252.80;;;;;;5012669;28;20050;-87
2021/10/09 05:20:43;;;;;;;21.45;8.68;;;231.10;2252.80;;;;;;4955662;29;20027;-88
2021/10/09 05:23:39;;;;;;;34.50;19.88;;;231.00;2252.80;;;;;;4938510;29;20031;-88
2021/10/09 05:26:23;;;;;;;44.30;25.90;;;230.90;2252.80;;;;;;4939657;29;20032;-88
2021/10/09 05:29:48;;;;;;;25.13;15.48;;;230.90;2252.80;;;;;;4939983;29;20027;-87
2021/10/09 05:32:48;;;;;;;17.35;10.93;;;230.90;2252.80;;;;;;4901461;29;20208;-88
2021/10/09 05:35:39;;;;;;;14.85;10.07;;;230.90;2252.80;;;;;;4913119;29;20036;-88
2021/10/09 05:39:00;;;;;;;14.68;9.38;;;230.90;2252.80;;;;;;4903077;29;20111;-88
2021/10/09 05:42:10;;;;;;;22.92;11.13;;;230.90;2252.80;;;;;;4905938;29;20051;-89
2021/10/09 05:45:19;;;;;;;22.95;12.32;;;231.00;2252.80;;;;;;4923720;29;20067;-87
2021/10/09 05:48:00;;;;;;;17.27;9.95;;;231.00;2252.80;;;;;;4931821;29;20036;-87
2021/10/09 06:45:16;;;;;;;37.58;24.77;;;231.10;2252.80;;;;;;5044044;28;20461;-83
2021/10/09 06:51:14;;;;;;;24.77;19.58;;;231.30;2252.80;;;;;;5056412;28;20032;-82
2021/10/09 07:00:15;;;;;;;21.58;15.23;;;231.20;2252.80;;;;;;5055407;28;20400;-85
2021/10/09 07:02:48;;;;;;;20.67;17.17;;;231.30;2252.80;;;;;;5034808;28;20109;-86
2021/10/09 07:05:40;;;;;;;25.20;20.95;;;231.30;2252.80;;;;;;5037292;28;20028;-84
2021/10/09 07:08:34;;;;;;;21.88;17.95;;;231.20;2252.80;;;;;;5012712;28;20026;-83
2021/10/09 07:11:27;;;;;;;;;;;231.20;2252.80;;;;;;5017039;28;20037;-83
2021/10/09 07:14:14;;;;;;;20.90;15.48;;;231.20;2252.80;;;;;;5016966;28;19913;-87
2021/10/09 07:17:02;;;;;;;33.35;23.40;;;231.30;2252.80;;;;;;5016577;28;20548;-85
2021/10/09 07:19:35;;;;;;;45.83;29.83;;;231.30;2252.80;;;;;;5001923;28;20044;-85
2021/10/09 07:22:25;;;;;;;32.72;20.30;;;256.00;2252.80;;;;;;4993903;28;20594;-82
2021/10/09 07:25:19;;;;;;;27.17;19.85;;;231.30;2252.80;;;;;;5032338;28;20168;-84
2021/10/09 07:28:02;;;;;;;18.75;14.82;;;231.30;2252.80;;;;;;5033139;28;20025;-81
2021/10/09 07:30:30;;;;;;;10.98;7.85;;;231.30;2252.80;;;;;;5016165;28;20030;-82
2021/10/09 07:32:57;;;;;;;8.82;6.68;;;231.30;2252.80;;;;;;5016340;28;20033;-81
2021/10/09 07:35:25;;;;;;;14.27;8.70;;;231.30;2252.80;;;;;;5016359;28;20037;-83
2021/10/09 07:37:53;;;;;;;14.98;10.77;;;231.30;2252.80;;;;;;5016046;28;20025;-83
2021/10/09 07:40:26;;;;;;;16.33;11.75;;;231.30;2252.80;;;;;;4999812;28;20041;-83
2021/10/09 07:42:54;;;;;;;;;;;231.30;2252.80;;;;;;5016759;28;20025;-84
2021/10/09 07:45:20;;;;;;;19.92;18.00;;;231.20;2252.80;;;;;;5015908;28;19905;-81
2021/10/09 07:47:46;;;;;;;21.60;19.40;;;231.20;2252.80;;;;;;5016145;28;20036;-79
2021/10/09 07:50:12;;;;;;;15.95;14.18;;;231.30;2252.80;;;;;;5015952;28;20040;-80
2021/10/09 07:52:53;;;;;;;31.30;22.02;;;231.20;2252.80;;;;;;5015975;28;20381;-87
2021/10/09 07:55:34;;;;;;;23.65;17.25;;;231.30;2252.80;;;;;;5015627;28;20125;-85
2021/10/09 07:58:33;;;;;;;25.10;17.05;;;231.30;2252.80;;;;;;5010581;28;20030;-86
2021/10/09 08:01:19;;;;;;;16.50;11.82;;;231.20;2252.80;;;;;;5029614;28;20122;-86
2021/10/09 08:04:08;;;;;;;15.70;13.55;;;231.30;2252.80;;;;;;5035956;28;20434;-86
2021/10/09 08:06:43;;;;;;;16.10;11.85;;;231.30;2252.80;;;;;;5010779;28;20045;-87
2021/10/09 08:09:42;;;;;;;14.27;11.45;;;256.10;2252.80;;;;;;5010195;28;20052;-84
2021/10/09 08:12:39;;;;;;;35.70;29.60;;;256.00;2252.80;;;;;;4973003;28;20041;-86
2021/10/09 08:15:17;;;;;;;23.55;18.23;;;256.10;2252.80;;;;;;4953586;29;20488;-85
2021/10/09 08:18:35;;;;;;;36.58;30.40;;;256.10;2252.80;;;;;;4954114;29;20039;-85
2021/10/09 08:21:44;;;;;;;24.60;19.17;;;256.20;2252.80;;;;;;4939906;29;20034;-85
2021/10/09 08:41:03;;;;;;;23.33;17.13;;;256.20;2252.80;;;;;;4896131;29;20063;-86
2021/10/09 08:43:58;;;;;;;20.80;16.30;;;256.30;2252.80;;;;;;4946187;29;20059;-85
2021/10/09 08:46:51;;;;;;;16.80;13.85;;;256.30;2252.80;;;;;;4921026;28;20122;-84
2021/10/09 08:49:52;;;;;;;16.08;10.90;;;256.30;2252.80;;;;;;4933829;29;20528;-85
2021/10/09 08:52:22;;;;;;;13.10;10.48;;;256.30;2252.80;;;;;;4950299;29;20037;-83
2021/10/09 08:54:49;;;;;;;16.08;12.77;;;256.30;2252.80;;;;;;4936658;29;20562;-81
2021/10/09 08:57:21;;;;;;;15.68;12.18;;;256.40;2252.80;;;;;;4967176;28;20034;-79
2021/10/09 08:59:57;;;;;;;16.63;14.18;;;256.40;2252.80;;;;;;4992227;28;20081;-80
2021/10/09 09:02:34;;;;;;;18.20;14.65;;;256.40;2252.80;;;;;;4975095;28;20034;-82
2021/10/09 09:35:28;;;;;;;61.30;29.25;;;256.50;2252.80;;;;;;4804119;29;20084;-86
2021/10/09 10:04:21;;;;;;;17.45;14.93;;;256.50;2252.80;;;;;;4803942;29;20147;-87
2021/10/09 10:11:12;;;;;;;19.67;14.15;;;256.50;2252.80;;;;;;4804214;29;20042;-85
2021/10/09 10:14:21;;;;;;;13.27;10.70;;;256.50;2252.80;;;;;;4785845;29;20065;-86
2021/10/09 10:18:12;;;;;;;21.38;15.45;;;256.60;2252.80;;;;;;4787836;29;20035;-86
2021/10/09 10:21:18;;;;;;;14.55;10.85;;;256.60;2252.80;;;;;;4835972;29;20034;-86
2021/10/09 10:23:48;;;;;;;17.98;15.27;;;256.60;2252.80;;;;;;4797900;29;20069;-86
2021/10/09 10:27:23;;;;;;;26.77;21.85;;;256.60;2252.80;;;;;;4830743;29;20094;-85
2021/10/09 10:34:32;;;;;;;25.67;19.98;;;256.60;2252.80;;;;;;4793212;29;20050;-86
2021/10/09 10:38:14;;;;;;;20.17;15.52;;;256.60;2252.80;;;;;;4823582;29;20039;-85
2021/10/09 10:41:35;;;;;;;22.48;20.10;;;256.60;2252.80;;;;;;4770975;30;20044;-86
2021/10/09 10:52:35;;;;;;;26.80;21.27;;;256.70;2252.80;;;;;;4848151;29;20474;-86
2021/10/09 10:55:51;;;;;;;19.00;15.07;;;256.60;2252.80;;;;;;4842979;29;20037;-85
2021/10/09 11:02:37;;;;;;;43.38;28.52;;;256.80;2252.80;;;;;;4917750;29;20396;-84
2021/10/09 11:05:15;;;;;;;54.65;34.50;;;256.70;2252.80;;;;;;4917333;29;20154;-86
2021/10/09 11:08:33;;;;;;;46.25;30.00;;;256.80;2252.80;;;;;;4921702;29;20166;-86
2021/10/09 11:12:11;;;;;;;43.95;28.25;;;256.80;2252.80;;;;;;4888749;29;20081;-85
2021/10/09 11:19:01;;;;;;;38.67;27.42;;;256.80;2252.80;;;;;;4825127;29;20105;-88
2021/10/09 11:22:39;;;;;;;45.80;39.17;;;281.70;2278.40;;;;;;4788257;30;20036;-86
2021/10/09 11:25:48;;;;;;;34.67;30.60;;;256.80;2252.80;;;;;;4788306;30;20047;-83
2021/10/09 11:28:20;;;;;;;29.55;23.70;;;256.80;2252.80;;;;;;4789841;29;20043;-80
2021/10/09 11:30:47;;;;;;;32.47;24.65;;;256.70;2252.80;;;;;;4839285;29;20132;-83
2021/10/09 11:33:15;;;;;;;36.10;24.15;;;256.80;2252.80;;;;;;4835014;29;20128;-84
2021/10/09 11:35:57;;;;;;;27.00;19.65;;;256.80;2252.80;;;;;;4841714;29;20049;-83
2021/10/09 11:38:45;;;;;;;21.23;16.80;;;256.80;2252.80;;;;;;4855045;29;20123;-85
2021/10/09 11:41:15;;;;;;;20.92;15.35;;;256.70;2252.80;;;;;;4955068;28;20525;-83
2021/10/09 11:43:50;;;;;;;16.17;12.38;;;256.70;2252.80;;;;;;4957626;28;20096;-80
2021/10/09 11:46:38;;;;;;;25.05;19.23;;;256.60;2252.80;;;;;;4957841;28;20027;-81
2021/10/09 11:55:24;;;;;;;89.05;60.13;;;256.50;2252.80;;;;;;4993322;28;20041;-83
2021/10/09 11:57:50;;;;;;;33.10;27.65;;;256.50;2252.80;;;;;;4993125;28;20022;-76
2021/10/09 12:00:28;;;;;;;30.52;23.38;;;256.20;2252.80;;;;;;4976998;28;20031;-75
2021/10/09 12:03:08;;;;;;;45.95;32.00;;;256.50;2252.80;;;;;;4976506;28;20073;-83
2021/10/09 12:05:57;;;;;;;43.08;28.13;;;256.50;2252.80;;;;;;4976982;28;20483;-80
2021/10/09 12:08:26;;;;;;;33.25;29.60;;;256.50;2252.80;;;;;;4976650;28;20049;-78
2021/10/09 12:11:15;;;;;;;22.83;18.52;;;256.50;2252.80;;;;;;4974681;28;20026;-76
2021/10/09 12:13:53;;;;;;;25.25;22.48;;;256.50;2252.80;;;;;;4975078;28;20058;-78
2021/10/09 12:16:26;;;;;;;24.67;22.13;;;256.50;2252.80;;;;;;4976275;28;20018;-78
2021/10/09 12:19:00;;;;;;;17.75;15.85;;;256.50;2252.80;;;;;;5001275;28;20037;-79
2021/10/09 12:21:31;;;;;;;15.88;14.18;;;256.60;2252.80;;;;;;5016723;28;20107;-77
2021/10/09 12:24:22;;;;;;;18.67;16.77;;;256.60;2252.80;;;;;;5016309;28;20025;-83
2021/10/09 12:27:17;;;;;;;16.85;15.15;;;256.70;2252.80;;;;;;5001435;28;20051;-79
2021/10/09 12:30:08;;;;;;;12.63;10.93;;;256.70;2252.80;;;;;;5033015;28;20018;-78
2021/10/09 12:32:48;;;;;;;14.65;11.80;;;256.70;2252.80;;;;;;5033781;28;20025;-79
2021/10/09 12:35:23;;;;;;;12.32;11.10;;;256.60;2252.80;;;;;;5015983;28;20029;-83
2021/10/09 12:38:13;;;;;;;13.27;10.75;;;256.60;2252.80;;;;;;5033623;28;20095;-80
2021/10/09 12:40:51;;;;;;;15.07;13.07;;;256.60;2252.80;;;;;;5016187;28;20024;-83
2021/10/09 12:43:19;;;;;;;18.77;15.35;;;256.50;2252.80;;;;;;5016163;28;20055;-81
2021/10/09 12:45:46;;;;;;;34.67;28.55;;;256.60;2252.80;;;;;;5015598;28;20112;-81
2021/10/09 12:48:14;;;;;;;32.72;24.83;;;256.60;2252.80;;;;;;5033762;28;20504;-79
2021/10/09 12:50:47;;;;;;;24.35;19.73;;;256.60;2252.80;;;;;;5015880;28;20045;-79
2021/10/09 12:53:13;;;;;;;25.35;21.65;;;256.60;2252.80;;;;;;5028934;28;20040;-80
2021/10/09 12:55:40;;;;;;;24.65;21.63;;;256.60;2252.80;;;;;;5015986;28;20033;-83
2021/10/09 12:58:09;;;;;;;25.63;21.02;;;256.60;2252.80;;;;;;5015958;28;20389;-80
2021/10/09 13:00:36;;;;;;;20.83;16.65;;;256.60;2252.80;;;;;;5015737;28;20411;-79
2021/10/09 13:03:10;;;;;;;19.73;15.90;;;256.70;2252.80;;;;;;5016167;28;20025;-83
2021/10/09 13:05:36;;;;;;;17.30;14.57;;;256.60;2252.80;;;;;;5016030;28;20033;-77
2021/10/09 13:08:08;;;;;;;25.48;20.85;;;256.60;2252.80;;;;;;5016099;28;20592;-80
2021/10/09 13:10:39;;;;;;;25.27;20.50;;;256.70;2252.80;;;;;;5015878;28;20026;-77
2021/10/09 13:13:24;;;;;;;35.45;26.13;;;256.70;2252.80;;;;;;5015569;28;20040;-83
2021/10/09 13:15:51;;;;;;;22.23;18.85;;;256.70;2252.80;;;;;;5015793;28;20033;-83
2021/10/09 13:18:25;;;;;;;25.50;19.98;;;256.70;2252.80;;;;;;5015909;28;20110;-86
2021/10/09 13:20:51;;;;;;;22.30;18.98;;;256.80;2252.80;;;;;;5015570;28;20100;-81
2021/10/09 13:23:42;;;;;;;16.98;13.50;;;256.80;2252.80;;;;;;5028265;28;20076;-86
2021/10/09 13:26:53;;;;;;;24.38;19.23;;;256.80;2252.80;;;;;;5038553;28;20034;-85
2021/10/09 13:30:16;;;;;;;50.83;32.80;;;256.80;2252.80;;;;;;4922170;29;20024;-86
2021/10/09 13:33:46;;;;;;;57.28;38.45;;;256.90;2252.80;;;;;;4917112;29;20043;-86
2021/10/09 13:37:20;;;;;;;64.78;43.08;;;256.90;2252.80;;;;;;5016326;28;20022;-84
2021/10/09 13:40:22;;;;;;;39.28;27.58;;;256.90;2252.80;;;;;;4977001;28;20043;-86
2021/10/09 14:08:36;;;;;;;61.97;52.40;;;256.80;2252.80;;;;;;4905059;29;20065;-86
2021/10/09 14:12:06;;;;;;;44.30;37.13;;;256.70;2252.80;;;;;;4885329;29;20049;-86
2021/10/09 14:15:36;;;;;;;24.02;21.13;;;256.70;2252.80;;;;;;4871183;29;20094;-85
2021/10/09 14:18:20;;;;;;;34.88;28.15;;;256.70;2252.80;;;;;;4924789;29;20090;-80
2021/10/09 14:20:52;;;;;;;26.88;23.35;;;256.80;2252.80;;;;;;4907664;29;20395;-80
2021/10/09 14:23:18;;;;;;;40.55;33.17;;;256.80;2252.80;;;;;;4976777;28;20442;-80
2021/10/09 14:25:45;;;;;;;33.83;22.92;;;256.90;2252.80;;;;;;4979832;28;20023;-77
2021/10/09 14:28:21;;;;;;;29.80;23.38;;;256.90;2252.80;;;;;;4987351;28;20042;-79
2021/10/09 14:30:49;;;;;;;27.08;20.88;;;256.90;2252.80;;;;;;4982418;28;20030;-76
2021/10/09 14:33:16;;;;;;;28.92;20.80;;;256.90;2252.80;;;;;;4980660;28;20035;-76
2021/10/09 14:35:43;;;;;;;26.48;21.88;;;256.70;2252.80;;;;;;4980366;28;20513;-76
2021/10/09 14:38:13;;;;;;;20.02;15.75;;;256.80;2252.80;;;;;;4988363;28;20052;-77
2021/10/09 14:40:48;;;;;;;19.30;17.00;;;256.80;2252.80;;;;;;5015258;28;20037;-77
2021/10/09 14:43:17;;;;;;;30.02;21.88;;;256.70;2252.80;;;;;;5026350;28;20034;-77
2021/10/09 14:45:43;;;;;;;37.08;29.75;;;256.80;2252.80;;;;;;5016103;28;20029;-77
2021/10/09 14:48:22;;;;;;;58.00;42.47;;;256.70;2252.80;;;;;;5038974;28;20032;-75
2021/10/09 14:54:01;;;;;;;72.05;51.22;;;256.90;2252.80;;;;;;5056505;28;20075;-80
2021/10/09 15:19:26;;;;;;;93.40;62.40;;;281.60;2278.40;;;;;;5038527;28;20450;-78
2021/10/09 15:22:06;;;;;;;87.50;57.13;;;256.90;2252.80;;;;;;5036436;28;20482;-79
2021/10/09 15:24:44;;;;;;;94.75;63.55;;;256.90;2252.80;;;;;;5039300;28;20267;-80
2021/10/09 15:27:17;;;;;;;81.78;59.47;;;281.60;2278.40;;;;;;5035122;28;20025;-82
2021/10/09 15:30:42;;;;;;;95.80;67.05;;;281.60;2278.40;;;;;;5033893;28;20030;-81
2021/10/09 15:33:28;;;;;;;78.00;54.75;;;256.90;2252.80;;;;;;4941937;28;20396;-84
2021/10/09 15:43:42;;;;;;;49.60;41.17;;;256.70;2252.80;;;;;;4935383;29;20035;-85
2021/10/09 15:50:27;;;;;;;46.50;37.35;;;256.70;2252.80;;;;;;4859626;29;20096;-85
2021/10/09 15:59:41;;;;;;;27.25;22.40;;;256.70;2252.80;;;;;;4772545;30;20084;-84
2021/10/09 16:02:07;;;;;;;29.77;23.52;;;256.70;2252.80;;;;;;4785930;30;20573;-81
2021/10/09 16:04:37;;;;;;;51.25;45.33;;;256.70;2252.80;;;;;;4771693;30;20066;-78
2021/10/09 16:07:20;;;;;;;49.95;42.88;;;256.60;2252.80;;;;;;4801842;29;20068;-78
2021/10/09 16:09:46;;;;;;;46.33;38.63;;;256.70;2252.80;;;;;;4878215;29;20040;-82
2021/10/09 16:12:18;;;;;;;54.55;44.03;;;256.70;2252.80;;;;;;4951972;29;20035;-81
2021/10/09 16:14:45;;;;;;;55.83;47.28;;;256.70;2252.80;;;;;;4953214;29;20479;-80
2021/10/09 16:17:26;;;;;;;61.17;52.92;;;256.70;2252.80;;;;;;4952676;29;20139;-81
2021/10/09 16:19:55;;;;;;;67.50;53.47;;;256.70;2252.80;;;;;;4952520;28;20381;-86
2021/10/09 16:22:25;;;;;;;51.35;38.70;;;256.70;2252.80;;;;;;4952866;29;20023;-87
2021/10/09 16:25:14;;;;;;;44.22;32.40;;;256.70;2252.80;;;;;;4952693;29;20043;-83
2021/10/09 16:28:23;;;;;;;49.08;34.97;;;256.80;2252.80;;;;;;4936389;29;20039;-86
2021/10/09 16:31:54;;;;;;;56.65;37.88;;;256.70;2252.80;;;;;;4908325;29;20096;-85
2021/10/09 16:38:26;;;;;;;32.88;28.23;;;256.50;2252.80;;;;;;4858204;29;20044;-86
2021/10/09 16:42:01;;;;;;;31.98;26.33;;;256.50;2252.80;;;;;;4877220;29;20033;-87
2021/10/09 16:45:33;;;;;;;33.22;29.65;;;256.50;2252.80;;;;;;4843026;29;20061;-87
2021/10/09 16:49:14;;;;;;;33.47;27.08;;;256.50;2252.80;;;;;;4767748;30;20040;-86
2021/10/09 16:52:43;;;;;;;28.73;22.50;;;256.50;2252.80;;;;;;4680673;30;20041;-87
2021/10/09 16:55:53;;;;;;;32.72;24.63;;;256.40;2252.80;;;;;;4697441;30;20092;-87
2021/10/09 17:02:36;;;;;;;32.22;28.65;;;256.40;2252.80;;;;;;4604940;31;20055;-87
2021/10/09 17:06:13;;;;;;;32.42;28.50;;;256.40;2252.80;;;;;;4592712;31;20059;-87
2021/10/09 17:09:52;;;;;;;46.65;41.67;;;256.50;2252.80;;;;;;4620030;31;20047;-88
2021/10/09 17:12:35;;;;;;;51.42;41.33;;;256.50;2252.80;;;;;;4600963;31;20469;-86
2021/10/09 17:16:13;;;;;;;36.30;32.17;;;256.20;2252.80;;;;;;4632218;30;20043;-86
2021/10/09 17:18:54;;;;;;;36.38;32.45;;;256.50;2252.80;;;;;;4669117;30;20037;-84
2021/10/09 17:21:59;;;;;;;33.97;30.48;;;256.40;2252.80;;;;;;4670033;30;20042;-83
2021/10/09 17:24:47;;;;;;;41.25;31.70;;;256.40;2252.80;;;;;;4753189;30;20577;-86
2021/10/09 17:28:00;;;;;;;186.25;97.47;;;256.90;2252.80;;;;;;4761283;30;20043;-86
2021/10/09 17:30:46;;;;;;;119.03;68.10;;;256.50;2252.80;;;;;;4770252;29;20093;-78
2021/10/09 17:33:13;;;;;;;55.67;45.72;;;256.50;2252.80;;;;;;4810470;29;20084;-83
2021/10/09 17:36:01;;;;;;;48.67;39.95;;;256.50;2252.80;;;;;;4840445;29;20172;-83
2021/10/09 17:38:27;;;;;;;48.50;38.85;;;256.50;2252.80;;;;;;4865621;29;20093;-82
2021/10/09 17:44:52;;;;;;;34.60;25.35;;;256.50;2252.80;;;;;;4919162;29;20043;-85
2021/10/09 17:51:47;;;;;;;28.38;22.92;;;256.50;2252.80;;;;;;4863347;29;20085;-86
2021/10/09 18:01:02;;;;;;;19.92;15.52;;;256.50;2252.80;;;;;;4807430;29;20046;-85
2021/10/09 18:04:27;;;;;;;18.52;14.82;;;256.50;2252.80;;;;;;4736210;30;20041;-84
2021/10/09 18:07:51;;;;;;;28.42;21.80;;;256.50;2252.80;;;;;;4731878;30;20040;-84
2021/10/09 18:14:48;;;;;;;22.70;17.65;;;256.50;2252.80;;;;;;4698098;30;20048;-86
2021/10/09 18:21:30;;;;;;;25.20;18.42;;;256.60;2252.80;;;;;;4712734;30;20724;-86
2021/10/09 18:28:37;;;;;;;26.70;20.70;;;256.50;2252.80;;;;;;4649933;30;20086;-86
2021/10/09 18:31:56;;;;;;;38.92;30.17;;;256.60;2252.80;;;;;;4625332;30;20496;-87
2021/10/09 18:38:35;;;;;;;49.65;31.73;;;256.50;2252.80;;;;;;4599504;31;20051;-86
2021/10/09 18:41:03;;;;;;;50.30;32.03;;;256.50;2252.80;;;;;;4600895;31;20518;-84
2021/10/09 19:00:51;;;;;;;30.15;24.98;;;256.60;2252.80;;;;;;4735739;30;20063;-88
2021/10/09 19:39:06;;;;;;;37.80;30.70;;;256.70;2252.80;;;;;;4860811;29;20168;-87
2021/10/09 19:42:37;;;;;;;33.70;24.02;;;256.70;2252.80;;;;;;4787686;30;20028;-87
2021/10/09 19:46:03;;;;;;;33.38;21.65;;;256.80;2252.80;;;;;;4751940;30;20087;-85
2021/10/09 19:52:51;;;;;;;45.58;30.35;;;256.80;2252.80;;;;;;4714697;30;20044;-85
2021/10/09 19:56:50;;;;;;;60.08;37.45;;;256.70;2252.80;;;;;;4715751;30;20120;-86
2021/10/09 20:00:17;;;;;;;56.92;35.35;;;256.90;2252.80;;;;;;4659791;30;20043;-82
2021/10/09 20:03:29;;;;;;;70.25;45.28;;;256.90;2252.80;;;;;;4655425;30;20595;-83
2021/10/09 20:06:40;;;;;;;75.25;48.95;;;256.70;2252.80;;;;;;4683881;30;20182;-79
2021/10/09 20:09:45;;;;;;;57.47;35.72;;;256.80;2252.80;;;;;;4746797;30;20514;-84
2021/10/09 20:12:55;;;;;;;34.20;22.92;;;256.80;2252.80;;;;;;4813139;29;20053;-85
2021/10/09 20:19:25;;;;;;;41.50;30.25;;;256.80;2252.80;;;;;;4911809;29;20121;-82
2021/10/09 20:23:02;;;;;;;43.60;28.67;;;256.90;2252.80;;;;;;4896964;29;20127;-82
2021/10/09 20:26:37;;;;;;;57.05;33.97;;;256.90;2252.80;;;;;;4893396;29;20039;-86
2021/10/09 20:30:07;;;;;;;60.22;44.13;;;256.90;2252.80;;;;;;4861308;29;20037;-84
2021/10/09 20:33:19;;;;;;;58.33;42.47;;;256.80;2252.80;;;;;;4872840;29;20101;-83
2021/10/09 20:36:05;;;;;;;60.47;44.95;;;256.90;2252.80;;;;;;4837242;29;20410;-76
2021/10/09 20:38:31;;;;;;;56.90;42.33;;;256.80;2252.80;;;;;;4867108;29;20033;-80
2021/10/09 20:41:06;;;;;;;52.60;40.90;;;256.90;2252.80;;;;;;4972264;28;20120;-82
2021/10/09 20:43:46;;;;;;;54.92;37.80;;;256.80;2252.80;;;;;;4976174;28;20034;-79
2021/10/09 20:46:20;;;;;;;48.65;34.65;;;256.90;2252.80;;;;;;4976150;28;20414;-81
2021/10/09 20:48:46;;;;;;;45.45;32.40;;;256.90;2252.80;;;;;;4975799;28;20030;-78
2021/10/09 20:51:12;;;;;;;41.80;30.80;;;256.90;2252.80;;;;;;4975961;28;20061;-78
2021/10/09 20:53:38;;;;;;;34.38;26.98;;;256.80;2252.80;;;;;;4976004;28;20073;-79
2021/10/09 20:56:04;;;;;;;34.95;25.70;;;256.70;2252.80;;;;;;4975449;28;20026;-80
2021/10/09 20:58:30;;;;;;;43.35;37.10;;;256.70;2252.80;;;;;;4975966;28;20116;-77
2021/10/09 21:00:57;;;;;;;55.92;44.88;;;256.70;2252.80;;;;;;4975930;28;20164;-78
2021/10/09 21:03:23;;;;;;;52.67;41.75;;;256.70;2252.80;;;;;;4975430;28;20033;-78
2021/10/09 21:05:49;;;;;;;28.92;23.65;;;256.70;2252.80;;;;;;4975534;28;20030;-78
2021/10/09 21:08:16;;;;;;;20.42;15.75;;;281.60;2278.40;;;;;;4975829;28;20026;-77
2021/10/09 21:11:05;;;;;;;18.75;14.10;;;256.60;2252.80;;;;;;5007833;28;20034;-76
2021/10/09 21:14:01;;;;;;;26.25;20.67;;;256.60;2252.80;;;;;;5015733;28;20034;-77
2021/10/09 21:21:53;;;;;;;32.05;22.85;;;256.60;2252.80;;;;;;5033541;28;20022;-76